Quantico, VA

1:41 PM EDT on May 29, 2015 (GMT -0400)
Port Potomac | | Change Station
CLOSE
Current Station
Personal Weather Station
Location: Woodbridge, VA
Elevation: 92 ft
Nearby Weather Stations

Elev 92 ft 38.60 °N, 77.30 °W | Updated 29 seconds ago

Scattered Clouds
Scattered Clouds
88.0 °F
Feels Like 120 °F
N
3.8
Wind Variable Wind from ESE
Gusts 4.3 mph

Today
High -- | Low -- °F
--% Chance of Precip.
Yesterday
High -- | Low -- °F
Precip. -- in
5:48 AM 8:25 PM
Waxing Gibbous, 85% visible
Pressure 30.26 in
Visibility 10.0 miles
Clouds Scattered Clouds 2000 ft
Scattered Clouds 3000 ft
Heat Index 120 °F
Dew Point 87 °F
Humidity 98%
Rainfall 0.00 in
Snow Depth Not available.
UV 9 out of 12
Pollen 8.10 out of 12
Air Quality Not available.
Flu Activity No Activity
METAR KNYG 291656Z 06005KT 10SM SCT020 SCT030 26/21 A3026 RMK AO2 SLP247 T02610211

More Conditions Fewer Conditions

Pressure 30.26 in
Visibility 10.0 miles
Clouds Scattered Clouds 2000 ft
Scattered Clouds 3000 ft
Heat Index 120 °F
Dew Point 87 °F
Humidity 98%
Rainfall 0.00 in
Snow Depth Not available.
UV 9 out of 12
Pollen 8.10 out of 12
Air Quality Not available.
Flu Activity No Activity
METAR KNYG 291656Z 06005KT 10SM SCT020 SCT030 26/21 A3026 RMK AO2 SLP247 T02610211

More Conditions Fewer Conditions

10-Day Weather Forecast

Almanac

Astronomy

May. 29, 2015 Rise Set
Actual Time
Civil Twilight
Nautical Twilight
Astronomical Twilight
Moon
Length of Visible Light
Length of Day
Tomorrow will be .
, % of the Moon is Illuminated

Today's Extremes

State Highs State Lows

Community

WunderPhotos

Upload Photos

1,825,306 photos uploaded!

WunderBlogs® & News

Nearby

Air Quality

  Air Quality AQ Index Pollutant
Not available.

Snow Depth

Station Depth Elevation

Earthquake Activity

City Distance Mag. Time & Date
Minimum magnitude displayed is 2.5.

Coastal Water Temperatures

Place Temperature

Stations

Nearby Weather Stations

Station Location Temp. Windchill Dew Point Humidity Wind Precip. Elev Updated Type